Time;durP1;ratioP1;P1;durP2;ratioP2;P2;SDS_P1;SDS_P2;PMS_P1;PMS_P2;Temp;Humidity;BMP_temperature;BMP_pressure;BME280_temperature;BME280_humidity;BME280_pressure;Samples;Min_cycle;Max_cycle;Signal;HPM_P1;HPM_P2
2023/03/24 00:00:30;;;;;;;3.23;3.03;;;14.60;99.90;;;14.87;nan;99641.84;4967640;28;20643;-61
2023/03/24 00:03:01;;;;;;;2.33;2.20;;;14.60;99.90;;;14.86;nan;99629.72;4970817;28;21027;-63
2023/03/24 00:05:29;;;;;;;4.63;2.93;;;14.60;99.90;;;14.87;nan;99628.72;4969374;28;20749;-64
2023/03/24 00:07:58;;;;;;;4.87;3.80;;;14.60;99.90;;;14.87;nan;99617.38;4970760;28;20638;-63
2023/03/24 00:10:33;;;;;;;3.83;3.50;;;14.60;99.90;;;14.87;nan;99606.88;4967601;28;20779;-65
2023/03/24 00:13:00;;;;;;;3.63;3.00;;;14.60;99.90;;;14.91;nan;99605.56;4971301;28;20622;-64
2023/03/24 00:15:28;;;;;;;4.87;3.27;;;14.70;99.90;;;14.89;nan;99608.38;4970632;28;21334;-67
2023/03/24 00:17:56;;;;;;;2.70;2.50;;;14.70;99.90;;;14.86;nan;99602.63;4968124;28;20743;-61
2023/03/24 00:20:25;;;;;;;3.43;3.13;;;14.70;99.90;;;14.85;nan;99608.84;4954944;28;20643;-64
2023/03/24 00:22:57;;;;;;;5.87;2.50;;;14.60;99.90;;;14.79;nan;99605.06;4984094;28;20643;-64
2023/03/24 00:25:35;;;;;;;3.83;3.20;;;14.60;99.90;;;14.79;nan;99597.19;4969823;28;20764;-64
2023/03/24 00:28:04;;;;;;;4.00;3.60;;;14.50;99.90;;;14.80;nan;99596.19;4960446;28;20631;-64
2023/03/24 00:30:33;;;;;;;2.73;2.57;;;14.50;99.90;;;14.80;nan;99598.81;4972025;28;20619;-65
2023/03/24 00:33:01;;;;;;;2.43;2.30;;;14.60;99.90;;;14.73;nan;99590.81;4971267;28;20688;-67
2023/03/24 00:35:28;;;;;;;3.70;3.10;;;14.50;99.90;;;14.70;nan;99577.97;4972699;28;20681;-64
2023/03/24 00:37:55;;;;;;;2.57;2.37;;;14.50;99.90;;;14.67;nan;99574.88;4969043;28;20815;-65
2023/03/24 00:40:22;;;;;;;14.30;2.13;;;14.40;99.90;;;14.65;nan;99567.13;4977981;28;20685;-65
2023/03/24 00:42:49;;;;;;;2.60;2.40;;;14.40;99.90;;;14.69;nan;99565.03;4969060;28;20639;-66
2023/03/24 00:45:24;;;;;;;3.67;2.70;;;14.40;99.90;;;14.70;nan;99550.91;4967967;28;20648;-66
2023/03/24 00:47:52;;;;;;;3.80;2.57;;;14.40;99.90;;;14.73;nan;99540.09;4952046;28;20788;-64
2023/03/24 00:50:25;;;;;;;2.80;2.60;;;14.50;99.90;;;14.75;nan;99533.69;4969363;28;20643;-64
2023/03/24 00:52:53;;;;;;;2.60;2.40;;;14.50;99.90;;;14.77;nan;99531.72;4963179;28;20650;-65
2023/03/24 00:55:20;;;;;;;2.93;2.60;;;14.50;99.90;;;14.76;nan;99529.25;4970445;28;20705;-65
2023/03/24 00:57:50;;;;;;;2.87;2.40;;;14.50;99.90;;;14.73;nan;99514.66;4986607;28;20659;-65
2023/03/24 01:00:24;;;;;;;3.40;3.03;;;14.50;99.90;;;14.71;nan;99521.06;4973955;28;20631;-65
2023/03/24 01:02:56;;;;;;;2.97;2.77;;;14.50;99.90;;;14.71;nan;99521.84;4976296;28;21215;-64
2023/03/24 01:05:27;;;;;;;3.60;3.23;;;14.40;99.90;;;14.75;nan;99520.56;4974965;28;20661;-65
2023/03/24 01:08:02;;;;;;;3.60;2.57;;;14.50;99.90;;;14.78;nan;99522.84;4975830;28;21215;-62
2023/03/24 01:10:33;;;;;;;2.60;2.50;;;14.60;99.90;;;14.81;nan;99526.13;4974074;28;20639;-65
2023/03/24 01:13:02;;;;;;;3.93;2.77;;;14.60;99.90;;;14.82;nan;99522.53;4982824;28;20635;-62
2023/03/24 01:15:33;;;;;;;5.90;3.43;;;14.60;99.90;;;14.79;nan;99526.31;4992970;23;20659;-69
2023/03/24 01:18:01;;;;;;;2.70;2.47;;;14.50;99.90;;;14.74;nan;99532.03;4970338;28;21290;-67
2023/03/24 01:20:31;;;;;;;2.80;2.60;;;14.50;99.90;;;14.74;nan;99528.59;4955412;28;20635;-66
2023/03/24 01:23:00;;;;;;;3.20;3.00;;;14.50;99.90;;;14.72;nan;99526.13;4970406;28;20710;-66
2023/03/24 01:25:29;;;;;;;4.50;3.20;;;14.40;99.90;;;14.67;nan;99514.50;4954300;28;20706;-66
2023/03/24 01:27:56;;;;;;;3.73;3.43;;;14.40;99.90;;;14.66;nan;99507.59;4954327;29;20643;-66
2023/03/24 01:30:27;;;;;;;3.20;2.90;;;14.40;99.90;;;14.64;nan;99505.13;4952093;28;21197;-65
2023/03/24 01:32:55;;;;;;;4.60;3.00;;;14.40;99.90;;;14.62;nan;99499.22;4945459;29;20631;-69
2023/03/24 01:35:24;;;;;;;2.90;2.70;;;14.40;99.90;;;14.58;nan;99512.84;4950146;28;20707;-65
2023/03/24 01:37:54;;;;;;;6.83;3.70;;;14.30;99.90;;;14.61;nan;99518.56;4951785;28;21168;-68
2023/03/24 01:40:28;;;;;;;3.53;3.07;;;14.40;99.90;;;14.63;nan;99506.09;4940693;28;20643;-66
2023/03/24 01:42:56;;;;;;;2.60;2.40;;;14.40;99.90;;;14.65;nan;99505.97;4950383;28;20752;-68
2023/03/24 01:45:39;;;;;;;2.73;2.53;;;14.40;99.90;;;14.61;nan;99509.88;4943632;28;20700;-66
2023/03/24 01:48:12;;;;;;;4.00;3.10;;;14.40;99.90;;;14.56;nan;99507.75;4954885;29;20686;-66
2023/03/24 01:50:42;;;;;;;3.20;2.03;;;14.40;99.90;;;14.54;nan;99508.91;4955250;28;20615;-66
2023/03/24 01:53:10;;;;;;;3.13;2.90;;;14.30;99.90;;;14.47;nan;99513.13;4953334;28;21038;-66
2023/03/24 01:55:37;;;;;;;2.23;1.73;;;14.20;99.90;;;14.44;nan;99503.78;4950947;28;20664;-67
2023/03/24 01:58:06;;;;;;;0.97;0.97;;;14.10;99.90;;;14.40;nan;99499.84;4950718;28;20691;-69
2023/03/24 02:00:33;;;;;;;2.30;2.10;;;14.10;99.90;;;14.44;nan;99480.16;4962709;28;20640;-66
2023/03/24 02:03:11;;;;;;;2.40;2.20;;;14.20;99.90;;;14.43;nan;99469.84;4956005;28;20635;-68
2023/03/24 02:05:40;;;;;;;2.80;2.50;;;14.20;99.90;;;14.43;nan;99475.91;4954860;28;20652;-69
2023/03/24 02:08:28;;;;;;;2.10;2.00;;;14.20;99.90;;;14.43;nan;99461.97;4954364;28;20628;-66
2023/03/24 02:10:57;;;;;;;1.87;1.77;;;14.20;99.90;;;14.38;nan;99461.63;4953435;28;21225;-66
2023/03/24 02:13:24;;;;;;;2.30;1.77;;;14.10;99.90;;;14.35;nan;99452.25;4970252;28;20678;-67
2023/03/24 02:16:16;;;;;;;3.33;2.40;;;14.10;99.90;;;14.33;nan;99456.84;4954482;28;20722;-70
2023/03/24 02:18:59;;;;;;;2.67;2.47;;;14.10;99.90;;;14.35;nan;99452.25;4969738;28;20677;-68
2023/03/24 02:22:25;;;;;;;1.63;1.33;;;14.10;99.90;;;14.36;nan;99451.28;4953443;28;21186;-66
2023/03/24 02:25:21;;;;;;;1.70;1.60;;;14.10;99.90;;;14.28;nan;99440.75;4954682;28;20624;-66
2023/03/24 02:28:35;;;;;;;3.03;2.10;;;14.00;99.90;;;14.31;nan;99442.28;4968077;28;20656;-67
2023/03/24 02:31:25;;;;;;;1.47;1.40;;;14.00;99.90;;;14.30;nan;99428.34;4968436;28;20643;-66
2023/03/24 02:34:10;;;;;;;2.23;1.90;;;14.00;99.90;;;14.28;nan;99422.41;4955102;28;20643;-65
2023/03/24 02:37:26;;;;;;;2.20;2.00;;;14.00;99.90;;;14.27;nan;99422.56;4944337;28;20668;-66
2023/03/24 02:40:45;;;;;;;2.57;1.73;;;14.00;99.90;;;14.25;nan;99420.09;4935769;28;20621;-66
2023/03/24 02:43:21;;;;;;;2.00;1.80;;;14.00;99.90;;;14.21;nan;99416.16;4954698;28;20632;-66
2023/03/24 02:46:15;;;;;;;1.13;1.03;;;14.00;99.90;;;14.25;nan;99414.84;4950134;28;21383;-68
2023/03/24 02:49:12;;;;;;;1.10;1.00;;;14.00;99.90;;;14.30;nan;99430.97;4946095;29;20660;-66
2023/03/24 02:52:00;;;;;;;1.40;1.40;;;14.00;99.90;;;14.32;nan;99425.53;4935845;28;20653;-65
2023/03/24 02:54:55;;;;;;;1.70;1.60;;;14.00;99.90;;;14.38;nan;99435.38;4935237;29;20657;-65
2023/03/24 02:57:40;;;;;;;2.37;2.20;;;14.10;99.90;;;14.36;nan;99435.56;4943665;28;21279;-67
2023/03/24 03:00:32;;;;;;;2.20;2.00;;;14.10;99.90;;;14.42;nan;99439.31;4952959;28;20663;-70
2023/03/24 03:03:11;;;;;;;2.00;1.73;;;14.10;99.90;;;14.46;nan;99427.53;4952146;28;20695;-66
2023/03/24 03:05:52;;;;;;;1.57;1.57;;;14.20;99.90;;;14.48;nan;99425.56;4952397;28;21032;-68
2023/03/24 03:08:20;;;;;;;3.13;2.07;;;14.20;99.90;;;14.51;nan;99433.91;4952140;29;20639;-66
2023/03/24 03:10:50;;;;;;;2.13;1.90;;;14.20;99.90;;;14.55;nan;99424.72;4951626;28;20829;-63
2023/03/24 03:13:26;;;;;;;2.50;2.30;;;14.30;99.90;;;14.53;nan;99418.00;4953913;29;20610;-66
2023/03/24 03:15:57;;;;;;;2.50;1.80;;;14.30;99.90;;;14.55;nan;99416.03;4951602;28;20672;-65
2023/03/24 03:18:58;;;;;;;1.80;1.67;;;14.30;99.90;;;14.63;nan;99418.66;4968399;28;20668;-66
2023/03/24 03:21:31;;;;;;;3.00;2.70;;;14.30;99.90;;;14.66;nan;99416.53;4947686;28;20648;-65
2023/03/24 03:24:06;;;;;;;2.10;2.00;;;14.40;99.90;;;14.68;nan;99419.81;4968776;28;20674;-67
2023/03/24 03:26:34;;;;;;;1.73;1.63;;;14.40;99.90;;;14.69;nan;99424.06;4967510;28;20667;-66
2023/03/24 03:29:08;;;;;;;1.90;1.80;;;14.40;99.90;;;14.66;nan;99434.91;4953855;29;20664;-67
2023/03/24 03:31:41;;;;;;;1.67;1.60;;;14.40;99.90;;;14.64;nan;99428.19;4967422;28;20743;-68
2023/03/24 03:34:27;;;;;;;2.00;1.90;;;14.40;99.90;;;14.64;nan;99430.81;4952218;28;21364;-67
2023/03/24 03:37:07;;;;;;;2.30;2.10;;;14.40;99.90;;;14.66;nan;99424.41;4950970;28;21222;-65
2023/03/24 03:39:42;;;;;;;2.10;2.00;;;14.40;99.90;;;14.60;nan;99432.13;4953355;29;20664;-65
2023/03/24 03:42:09;;;;;;;2.30;2.17;;;14.30;99.90;;;14.58;nan;99441.97;4950976;28;21079;-66
2023/03/24 03:44:36;;;;;;;1.63;1.53;;;14.30;99.90;;;14.55;nan;99439.66;4952999;28;20624;-65
2023/03/24 03:47:03;;;;;;;2.67;2.47;;;14.30;99.90;;;14.56;nan;99438.69;4952263;28;21106;-66
2023/03/24 03:49:31;;;;;;;6.33;3.77;;;14.30;99.90;;;14.57;nan;99445.56;4951783;29;20656;-66
2023/03/24 03:51:58;;;;;;;2.70;2.50;;;14.30;99.90;;;14.62;nan;99451.16;4949908;28;20656;-66
2023/03/24 03:54:28;;;;;;;1.90;1.80;;;14.30;99.90;;;14.66;nan;99444.56;4951486;28;20983;-66
2023/03/24 03:56:56;;;;;;;3.00;2.70;;;14.40;99.90;;;14.73;nan;99451.66;4952794;28;20636;-66
2023/03/24 03:59:32;;;;;;;3.23;2.67;;;14.50;99.90;;;14.77;nan;99460.81;4951996;28;20676;-67
2023/03/24 04:02:28;;;;;;;4.63;2.57;;;14.50;99.90;;;14.81;nan;99453.44;4947091;29;20699;-67
2023/03/24 04:05:17;;;;;;;2.20;2.10;;;14.50;99.90;;;14.88;nan;99451.78;4943641;29;20633;-67
2023/03/24 04:08:36;;;;;;;2.17;1.60;;;14.60;99.90;;;15.09;nan;99459.13;4936822;28;20633;-65
2023/03/24 04:11:33;;;;;;;1.13;1.03;;;14.80;99.90;;;15.28;nan;99471.91;4950356;28;21259;-66
2023/03/24 04:14:25;;;;;;;1.50;0.90;;;15.00;99.90;;;15.42;nan;99461.50;4951602;29;20640;-66
2023/03/24 04:17:15;;;;;;;1.73;1.63;;;15.10;99.90;;;15.51;nan;99481.56;4951348;28;20675;-67
2023/03/24 04:19:42;;;;;;;2.00;1.90;;;15.20;99.90;;;15.57;nan;99487.94;4952065;29;20672;-66
2023/03/24 04:22:26;;;;;;;1.60;1.50;;;15.20;99.90;;;15.59;nan;99491.22;4952785;29;20622;-65
2023/03/24 04:25:35;;;;;;;2.77;2.57;;;15.30;99.90;;;15.59;nan;99499.13;4951484;29;20646;-65
2023/03/24 04:28:25;;;;;;;4.13;2.77;;;15.30;99.90;;;15.60;nan;99490.25;4952814;28;21058;-66
2023/03/24 04:31:03;;;;;;;2.30;2.10;;;15.30;99.90;;;15.59;nan;99500.94;4967061;28;20615;-65
2023/03/24 04:33:49;;;;;;;2.40;2.20;;;15.30;99.90;;;15.58;nan;99494.03;4953806;28;20628;-65
2023/03/24 04:36:41;;;;;;;1.53;1.53;;;15.30;99.90;;;15.56;nan;99502.09;4933472;29;21219;-66
2023/03/24 04:39:16;;;;;;;2.70;2.50;;;15.30;99.90;;;15.57;nan;99503.72;4933824;28;21010;-65
2023/03/24 04:41:46;;;;;;;2.37;2.20;;;15.30;99.90;;;15.58;nan;99515.88;4966873;28;20640;-66
2023/03/24 04:44:16;;;;;;;2.60;2.40;;;15.30;99.90;;;15.52;nan;99522.63;4958449;28;21413;-66
2023/03/24 04:46:44;;;;;;;2.67;2.27;;;15.20;99.90;;;15.50;nan;99508.84;4965740;28;20663;-69
2023/03/24 04:49:11;;;;;;;2.20;2.10;;;15.20;99.90;;;15.47;nan;99511.00;4950673;28;20631;-66
2023/03/24 04:51:38;;;;;;;2.67;2.30;;;15.20;99.90;;;15.45;nan;99500.66;4946158;28;20648;-64
2023/03/24 04:54:05;;;;;;;2.00;1.90;;;15.20;99.90;;;15.45;nan;99495.41;4951001;28;20643;-66
2023/03/24 04:56:48;;;;;;;2.00;1.73;;;15.20;99.90;;;15.42;nan;99495.69;4950602;28;20670;-66
2023/03/24 04:59:16;;;;;;;2.40;2.30;;;15.20;99.90;;;15.38;nan;99477.78;4965088;28;21249;-66
2023/03/24 05:01:48;;;;;;;2.60;2.50;;;15.10;99.90;;;15.37;nan;99482.25;4964603;28;20611;-65
2023/03/24 05:04:19;;;;;;;2.43;2.33;;;15.10;99.90;;;15.32;nan;99489.81;4949185;28;20644;-66
2023/03/24 05:06:46;;;;;;;2.60;2.40;;;15.10;99.90;;;15.27;nan;99486.84;4938061;28;20661;-66
2023/03/24 05:09:13;;;;;;;3.10;2.80;;;15.00;99.90;;;15.22;nan;99473.41;4946374;28;20759;-67
2023/03/24 05:11:40;;;;;;;4.60;2.20;;;15.00;99.90;;;15.18;nan;99472.06;4950322;29;21291;-66
2023/03/24 05:14:07;;;;;;;2.50;2.40;;;15.00;99.90;;;15.16;nan;99471.44;4948407;28;20640;-66
2023/03/24 05:16:34;;;;;;;2.20;2.10;;;15.00;99.90;;;15.11;nan;99484.25;4951471;28;21358;-63
2023/03/24 05:19:03;;;;;;;2.17;2.07;;;14.90;99.90;;;15.05;nan;99474.44;4943156;28;20660;-66
2023/03/24 05:21:31;;;;;;;2.53;2.33;;;14.80;99.90;;;15.02;nan;99481.78;4942115;28;20643;-66
2023/03/24 05:23:59;;;;;;;3.60;2.43;;;14.80;99.90;;;14.97;nan;99474.41;4952326;28;20678;-66
2023/03/24 05:26:26;;;;;;;2.67;2.57;;;14.80;99.90;;;14.94;nan;99469.50;4951349;28;20660;-65
2023/03/24 05:28:54;;;;;;;3.87;2.60;;;14.70;99.90;;;14.91;nan;99477.72;4950854;29;20632;-67
2023/03/24 05:31:21;;;;;;;2.57;2.00;;;14.70;99.90;;;14.88;nan;99475.44;4946687;28;21059;-66
2023/03/24 05:33:48;;;;;;;2.10;2.00;;;14.70;99.90;;;14.85;nan;99473.13;4952828;28;20632;-65
2023/03/24 05:36:15;;;;;;;1.90;1.80;;;14.60;99.90;;;14.84;nan;99478.53;4951890;28;20857;-65
2023/03/24 05:38:42;;;;;;;1.90;1.80;;;14.60;99.90;;;14.81;nan;99466.56;4950181;29;20662;-66
2023/03/24 05:41:08;;;;;;;1.80;1.70;;;14.60;99.90;;;14.83;nan;99469.00;4949495;28;21218;-65
2023/03/24 05:43:35;;;;;;;2.00;1.90;;;14.60;99.90;;;14.80;nan;99461.50;4954088;28;20627;-67
2023/03/24 05:46:02;;;;;;;2.03;1.93;;;14.60;99.90;;;14.80;nan;99467.53;4950856;28;21259;-66
2023/03/24 05:48:29;;;;;;;1.60;1.60;;;14.60;99.90;;;14.78;nan;99472.13;4956050;28;21004;-68
2023/03/24 05:50:56;;;;;;;1.93;1.83;;;14.60;99.90;;;14.74;nan;99466.41;4952885;29;20616;-67
2023/03/24 05:53:23;;;;;;;1.70;1.60;;;14.50;99.90;;;14.73;nan;99477.06;4955555;28;20636;-66
2023/03/24 05:55:52;;;;;;;2.03;1.80;;;14.50;99.90;;;14.73;nan;99474.44;4954759;28;20985;-67
2023/03/24 05:58:20;;;;;;;1.87;1.77;;;14.50;99.90;;;14.72;nan;99478.88;4968539;28;21302;-68
2023/03/24 06:00:47;;;;;;;1.40;1.30;;;14.50;99.90;;;14.75;nan;99488.22;4955212;29;20640;-66
2023/03/24 06:03:15;;;;;;;1.90;1.80;;;14.50;99.90;;;14.77;nan;99488.88;4955449;28;20633;-68
2023/03/24 06:05:44;;;;;;;1.80;1.80;;;14.50;99.90;;;14.79;nan;99489.53;4948660;29;20725;-68
2023/03/24 06:08:11;;;;;;;1.17;0.87;;;14.60;99.90;;;14.83;nan;99501.34;4960407;28;20631;-65
2023/03/24 06:10:39;;;;;;;1.30;1.30;;;14.60;99.90;;;14.83;nan;99493.47;4956708;28;20650;-65
2023/03/24 06:13:07;;;;;;;1.50;1.50;;;14.60;99.90;;;14.91;nan;99496.09;4954707;29;21060;-68
2023/03/24 06:15:35;;;;;;;1.50;1.40;;;14.70;99.90;;;14.93;nan;99491.50;4951483;28;20993;-67
2023/03/24 06:18:04;;;;;;;1.50;1.50;;;14.70;99.90;;;14.96;nan;99506.09;4953935;28;20644;-69
2023/03/24 06:20:31;;;;;;;1.13;1.13;;;14.70;99.90;;;15.01;nan;99506.44;4954051;29;20664;-66
2023/03/24 06:22:58;;;;;;;1.67;1.63;;;14.80;99.90;;;15.04;nan;99503.47;4949323;28;20636;-65
2023/03/24 06:25:27;;;;;;;0.57;0.57;;;14.80;99.90;;;14.99;nan;99513.66;4952663;28;20631;-67
2023/03/24 06:27:54;;;;;;;1.20;1.20;;;14.80;99.90;;;14.96;nan;99508.72;4948900;28;20650;-67
2023/03/24 06:30:21;;;;;;;1.90;1.80;;;14.70;99.90;;;14.93;nan;99503.81;4954496;28;20690;-64
2023/03/24 06:32:49;;;;;;;1.70;1.60;;;14.70;99.90;;;14.92;nan;99505.63;4954006;28;21220;-66
2023/03/24 06:35:16;;;;;;;1.70;1.60;;;14.70;99.90;;;14.96;nan;99512.19;4955030;28;20995;-66
2023/03/24 06:37:44;;;;;;;2.00;1.90;;;14.70;99.90;;;14.98;nan;99504.13;4953545;28;20656;-68
2023/03/24 06:40:14;;;;;;;1.73;1.63;;;14.70;99.90;;;14.96;nan;99499.06;4948670;29;21194;-65
2023/03/24 06:42:41;;;;;;;2.10;2.00;;;14.70;99.90;;;15.00;nan;99496.91;4953292;28;21256;-69
2023/03/24 06:45:09;;;;;;;2.20;2.10;;;14.70;99.90;;;15.02;nan;99505.44;4952698;28;20666;-67
2023/03/24 06:47:36;;;;;;;2.00;1.90;;;14.80;99.90;;;15.08;nan;99513.47;4953423;28;20678;-67
2023/03/24 06:50:05;;;;;;;2.03;1.93;;;14.80;99.90;;;15.12;nan;99514.78;4949886;28;20654;-67
2023/03/24 06:52:34;;;;;;;1.90;1.90;;;14.90;99.90;;;15.18;nan;99529.88;4953874;29;21197;-66
2023/03/24 06:55:02;;;;;;;2.43;2.27;;;14.90;99.90;;;15.20;nan;99527.94;4951710;28;20686;-70
2023/03/24 06:57:30;;;;;;;2.70;2.50;;;15.00;99.90;;;15.20;nan;99533.19;4966883;28;20672;-69
2023/03/24 06:59:57;;;;;;;2.23;2.03;;;15.00;99.90;;;15.26;nan;99535.16;4951798;28;20679;-67
2023/03/24 07:02:24;;;;;;;2.87;2.67;;;15.00;99.90;;;15.33;nan;99522.97;4953132;29;21031;-67
2023/03/24 07:04:52;;;;;;;2.57;2.43;;;15.10;99.90;;;15.42;nan;99529.84;4952596;28;20703;-66
2023/03/24 07:07:21;;;;;;;2.80;2.60;;;15.20;99.90;;;15.50;nan;99524.59;4954025;28;20651;-68
2023/03/24 07:10:08;;;;;;;2.20;2.10;;;15.20;99.90;;;15.60;nan;99545.47;4954650;29;20656;-68
2023/03/24 07:12:35;;;;;;;2.20;2.00;;;15.30;99.90;;;15.66;nan;99549.22;4949812;28;21090;-67
2023/03/24 07:15:06;;;;;;;2.07;1.97;;;15.40;99.90;;;15.72;nan;99551.16;4953046;28;21351;-67
2023/03/24 07:17:33;;;;;;;3.37;2.20;;;15.50;99.90;;;15.73;nan;99551.03;5036181;23;21279;-69
2023/03/24 07:20:00;;;;;;;1.90;1.80;;;15.50;99.90;;;15.65;nan;99555.47;5002700;28;21055;-69
2023/03/24 07:22:27;;;;;;;0.97;0.83;;;15.50;99.90;;;15.56;nan;99552.06;5007324;28;20635;-69
2023/03/24 07:24:56;;;;;;;1.63;1.53;;;15.40;99.90;;;15.49;nan;99557.16;5004293;28;20637;-71
2023/03/24 07:27:23;;;;;;;0.80;0.80;;;15.30;99.90;;;15.36;nan;99541.03;5008493;28;21281;-70
2023/03/24 07:29:50;;;;;;;2.07;1.97;;;15.10;99.90;;;15.40;nan;99539.72;5011590;28;20625;-69
2023/03/24 07:32:18;;;;;;;0.80;0.80;;;15.10;99.90;;;15.47;nan;99530.22;5007890;28;20653;-69
2023/03/24 07:34:45;;;;;;;2.33;1.80;;;15.20;99.90;;;15.56;nan;99543.34;5010598;28;20641;-70
2023/03/24 07:37:13;;;;;;;1.67;1.60;;;15.30;99.90;;;15.58;nan;99547.44;5001647;28;21251;-70
2023/03/24 07:39:40;;;;;;;1.80;1.73;;;15.30;99.90;;;15.60;nan;99555.97;4990505;28;21035;-69
2023/03/24 07:42:06;;;;;;;2.13;1.90;;;15.30;99.90;;;15.62;nan;99553.19;5009927;28;20640;-68
2023/03/24 07:44:34;;;;;;;1.73;1.63;;;15.30;99.90;;;15.53;nan;99545.31;5010440;28;20637;-67
2023/03/24 07:47:01;;;;;;;1.07;1.07;;;15.30;99.90;;;15.48;nan;99542.34;5010714;28;20702;-69
2023/03/24 07:49:28;;;;;;;2.10;1.97;;;15.20;99.90;;;15.47;nan;99548.63;4977038;28;20629;-69
2023/03/24 07:51:55;;;;;;;1.03;1.03;;;15.20;99.90;;;15.38;nan;99546.94;5001757;28;20660;-70
2023/03/24 07:54:22;;;;;;;1.53;1.50;;;15.10;99.90;;;15.35;nan;99560.41;5001986;28;20756;-70
2023/03/24 07:56:49;;;;;;;1.40;1.40;;;15.10;99.90;;;15.30;nan;99554.84;5002477;28;20690;-70
2023/03/24 07:59:16;;;;;;;0.97;0.97;;;15.10;99.90;;;15.29;nan;99558.44;5004064;28;20673;-70
2023/03/24 08:01:43;;;;;;;0.50;0.47;;;15.10;99.90;;;15.23;nan;99560.91;5003271;28;20676;-71
2023/03/24 08:04:12;;;;;;;1.20;1.10;;;15.00;99.90;;;15.22;nan;99556.66;5006775;28;20665;-69
2023/03/24 08:06:42;;;;;;;1.43;1.10;;;15.00;99.90;;;15.26;nan;99547.47;4982827;28;20646;-68
2023/03/24 08:09:10;;;;;;;1.13;1.13;;;15.00;99.90;;;15.28;nan;99562.09;4997792;28;20912;-68
2023/03/24 08:11:37;;;;;;;1.50;1.40;;;15.00;99.90;;;15.33;nan;99551.06;5007797;28;20625;-69
2023/03/24 08:14:04;;;;;;;2.30;1.40;;;15.00;99.90;;;15.38;nan;99549.56;5010007;28;20633;-68
2023/03/24 08:16:31;;;;;;;1.77;1.67;;;15.10;99.90;;;15.42;nan;99571.09;4999221;28;20657;-67
2023/03/24 08:18:58;;;;;;;3.00;1.20;;;15.20;99.90;;;15.36;nan;99556.81;4990997;28;20656;-69
2023/03/24 08:21:25;;;;;;;2.30;2.10;;;15.10;99.90;;;15.38;nan;99565.34;4994019;28;20665;-70
2023/03/24 08:23:52;;;;;;;2.00;1.90;;;15.10;99.90;;;15.34;nan;99566.66;5005640;28;20635;-68
2023/03/24 08:26:21;;;;;;;1.37;1.27;;;15.10;99.90;;;15.35;nan;99568.28;5001912;28;20724;-69
2023/03/24 08:28:48;;;;;;;1.97;1.83;;;15.10;99.90;;;15.38;nan;99564.53;5000572;28;20634;-69
2023/03/24 08:31:15;;;;;;;1.37;1.30;;;15.20;99.90;;;15.28;nan;99569.97;5002163;28;21016;-68
2023/03/24 08:33:42;;;;;;;1.63;1.00;;;15.10;99.90;;;15.24;nan;99560.78;5020738;28;20714;-70
2023/03/24 08:36:09;;;;;;;2.57;1.90;;;15.00;99.90;;;15.22;nan;99564.56;5009755;28;20629;-69
2023/03/24 08:38:37;;;;;;;2.10;2.00;;;14.90;99.90;;;15.25;nan;99557.16;5009271;28;20690;-70
2023/03/24 08:41:06;;;;;;;0.87;0.87;;;15.00;99.90;;;15.29;nan;99566.34;5009855;28;20665;-69
2023/03/24 08:43:35;;;;;;;1.80;1.70;;;15.00;99.90;;;15.31;nan;99574.88;5001434;28;20643;-69
2023/03/24 08:46:06;;;;;;;2.13;2.03;;;15.00;99.90;;;15.33;nan;99567.66;5002137;28;20634;-67
2023/03/24 08:48:35;;;;;;;1.07;1.07;;;15.10;99.90;;;15.30;nan;99562.75;4976363;28;20671;-69
2023/03/24 08:51:14;;;;;;;2.30;2.20;;;15.10;99.90;;;15.38;nan;99564.53;5008270;28;20646;-68
2023/03/24 08:53:42;;;;;;;0.50;0.40;;;15.10;99.90;;;15.37;nan;99553.22;5007353;28;20685;-69
2023/03/24 08:56:09;;;;;;;1.70;1.60;;;15.10;99.90;;;15.41;nan;99566.81;5008495;28;20683;-69
2023/03/24 08:58:36;;;;;;;1.23;1.20;;;15.20;99.90;;;15.43;nan;99568.34;5009159;28;20672;-69
2023/03/24 09:01:04;;;;;;;2.43;1.53;;;15.20;99.90;;;15.40;nan;99568.63;5009497;28;20672;-69
2023/03/24 09:03:31;;;;;;;1.10;1.10;;;15.20;99.90;;;15.43;nan;99570.97;5000906;28;20642;-69
2023/03/24 09:05:58;;;;;;;1.67;1.57;;;15.20;99.90;;;15.42;nan;99568.44;5010723;28;21003;-69
2023/03/24 09:08:25;;;;;;;1.43;1.33;;;15.20;99.90;;;15.43;nan;99567.50;5010956;28;20613;-69
2023/03/24 09:10:52;;;;;;;2.13;1.97;;;15.20;99.90;;;15.49;nan;99572.09;4995962;28;21069;-69
2023/03/24 09:13:20;;;;;;;2.10;2.00;;;15.20;99.90;;;15.50;nan;99571.91;4998361;28;20637;-69
2023/03/24 09:15:53;;;;;;;1.53;1.50;;;15.20;99.90;;;15.62;nan;99579.47;5010545;28;20703;-69
2023/03/24 09:18:21;;;;;;;1.73;1.60;;;15.30;99.90;;;15.62;nan;99574.22;5005607;28;20657;-69
2023/03/24 09:20:49;;;;;;;0.70;0.70;;;15.40;99.90;;;15.54;nan;99567.97;5011988;28;21245;-67
2023/03/24 09:23:17;;;;;;;1.00;1.00;;;15.30;99.90;;;15.46;nan;99569.81;5012191;28;20637;-70
2023/03/24 09:25:44;;;;;;;1.30;1.27;;;15.20;99.90;;;15.46;nan;99567.19;5003282;28;20630;-68
2023/03/24 09:28:13;;;;;;;2.70;1.53;;;15.20;99.90;;;15.47;nan;99579.34;5005611;28;20650;-69
2023/03/24 09:30:41;;;;;;;2.40;1.23;;;15.20;99.90;;;15.38;nan;99578.50;5019738;28;21076;-69
2023/03/24 09:33:08;;;;;;;0.60;0.60;;;15.20;99.90;;;15.36;nan;99580.47;5005551;28;20691;-69
2023/03/24 09:35:35;;;;;;;1.50;1.30;;;15.20;99.90;;;15.40;nan;99580.94;5004678;28;20636;-69
2023/03/24 09:38:03;;;;;;;0.80;0.80;;;15.10;99.90;;;15.37;nan;99590.00;5010238;28;20649;-68
2023/03/24 09:40:35;;;;;;;1.70;1.20;;;15.10;99.90;;;15.37;nan;99587.38;5014868;28;20664;-65
2023/03/24 09:43:25;;;;;;;1.00;1.00;;;15.10;99.90;;;15.39;nan;99584.56;5029730;28;20687;-67
2023/03/24 09:45:56;;;;;;;1.20;1.10;;;15.20;99.90;;;15.37;nan;99581.28;5022023;28;21214;-68
2023/03/24 09:48:52;;;;;;;1.57;1.57;;;15.10;99.90;;;15.38;nan;99589.00;5011447;28;21054;-70
2023/03/24 09:51:29;;;;;;;0.90;0.90;;;15.10;99.90;;;15.38;nan;99589.00;5009384;28;20642;-69
2023/03/24 09:54:25;;;;;;;0.70;0.70;;;15.10;99.90;;;15.38;nan;99581.13;5027046;28;20645;-68
2023/03/24 09:56:54;;;;;;;0.80;0.80;;;15.10;99.90;;;15.36;nan;99574.38;4986135;28;20669;-70
2023/03/24 09:59:35;;;;;;;1.30;1.20;;;15.10;99.90;;;15.39;nan;99593.28;5002062;28;20626;-68
2023/03/24 10:02:15;;;;;;;1.37;1.30;;;15.20;99.90;;;15.32;nan;99594.94;5005281;28;20642;-68
2023/03/24 10:04:43;;;;;;;1.93;1.83;;;15.10;99.90;;;15.34;nan;99597.38;5013091;28;20663;-68
2023/03/24 10:07:28;;;;;;;1.83;1.73;;;15.10;99.90;;;15.43;nan;99599.88;5010248;28;20652;-69
2023/03/24 10:09:59;;;;;;;4.10;2.00;;;15.20;99.90;;;15.58;nan;99599.19;4992994;28;20676;-68
2023/03/24 10:12:39;;;;;;;1.67;1.67;;;15.30;99.90;;;15.69;nan;99606.75;5008031;28;21047;-68
2023/03/24 10:15:30;;;;;;;1.90;1.80;;;15.40;99.90;;;15.76;nan;99605.88;5007616;28;20630;-69
2023/03/24 10:18:16;;;;;;;2.10;2.00;;;15.50;99.90;;;15.78;nan;99613.63;4995009;28;20880;-70
2023/03/24 10:21:05;;;;;;;1.77;1.70;;;15.50;99.90;;;15.80;nan;99616.91;5012017;28;20660;-68
2023/03/24 10:24:00;;;;;;;1.93;1.83;;;15.50;99.90;;;15.81;nan;99621.16;5013264;28;20628;-68
2023/03/24 10:26:46;;;;;;;2.63;2.40;;;15.60;99.90;;;15.83;nan;99621.81;5008861;28;20693;-69
2023/03/24 10:29:35;;;;;;;1.97;1.87;;;15.60;99.90;;;15.85;nan;99611.94;4992071;28;20621;-70
2023/03/24 10:32:11;;;;;;;1.90;1.80;;;15.60;99.90;;;15.85;nan;99627.72;4993311;28;21029;-69
2023/03/24 10:34:41;;;;;;;2.57;2.37;;;15.60;99.90;;;15.90;nan;99607.03;5008054;28;20633;-70
2023/03/24 10:37:10;;;;;;;5.13;1.73;;;15.60;99.90;;;15.86;nan;99610.97;5023595;28;20692;-69
2023/03/24 10:39:37;;;;;;;1.23;1.23;;;15.70;99.90;;;15.75;nan;99616.59;5027404;28;20651;-68
2023/03/24 10:42:33;;;;;;;3.07;1.83;;;15.60;99.90;;;15.68;nan;99655.03;5005439;28;21189;-69
2023/03/24 10:45:01;;;;;;;1.50;1.50;;;15.40;99.90;;;15.65;nan;99677.25;5009240;28;21044;-66
2023/03/24 10:47:30;;;;;;;0.60;0.60;;;15.40;99.90;;;15.58;nan;99678.91;5027899;28;20657;-69
2023/03/24 10:50:01;;;;;;;0.77;0.77;;;15.40;99.90;;;15.56;nan;99687.94;5006535;28;20641;-69
2023/03/24 10:52:45;;;;;;;0.50;0.50;;;15.40;99.90;;;15.47;nan;99698.44;5007591;28;20633;-71
2023/03/24 10:55:19;;;;;;;0.80;0.70;;;15.30;99.90;;;15.35;nan;99701.53;4997008;28;20637;-69
2023/03/24 10:57:50;;;;;;;0.57;0.57;;;15.10;99.90;;;15.24;nan;99707.09;5004962;28;20654;-68